Metar z połowy godziny Komunikat METAR ze strony awiacja.imgw.pl Metar G30 EPOK METAR EPOK 180830Z 01012KT 9999 BKN028 08/05 Q1029 RMK 083 078 7/7 =